Nearby METAR Reports

 

CYUL - Montreal/Dorval, Quebec, Canada
Distance from station: ENE 6km
Updated: 10/18/2017 23:00 EDT
Clear
Clear
 Wind from S
Wind: S 6 km/h
Temperature: 12°C
Dew Point: 8°C
Humidity: 77%
Barometer: 1020 hPa
Clouds: Clear
Visibility: 24 km
2017/10/19 03:00 CYUL 190300Z 19003KT 15SM SKC 12/08 A3012 RMK SLP201
CWVQ - Ste Anne De Bell, Quebec, Canada
Distance from station: WSW 10km
Updated: 10/18/2017 23:00 EDT

 Wind from SSE
Wind: SSE 4 km/h
Temperature: 9°C
Dew Point: 8°C
Humidity: 94%
2017/10/19 03:00 CWVQ 190300Z AUTO 15002KT 09/08 RMK AO1 SLP200 T00870076 58005
 
CWTA - Mc Tavish (aut), Quebec, Canada
Distance from station: ENE 18km
Updated: 10/18/2017 23:00 EDT

 Wind from S
Wind: S 4 km/h
Temperature: 14°C
Dew Point: 8°C
Humidity: 67%
2017/10/19 03:00 CWTA 190300Z AUTO 19002KT 14/08 RMK AO1 SLP201 T01350077 57006
CYMX - Montreal/Mirabel, Quebec, Canada
Distance from station: NW 29km
Updated: 10/18/2017 23:00 EDT
Clear
Clear
 Wind from calm
Wind: Calm
Temperature: 10°C
Dew Point: 8°C
Humidity: 88%
Barometer: 1019.6 hPa
Clouds: Clear
Visibility: 40 km
2017/10/19 03:00 CYMX 190300Z 00000KT 25SM SKC 10/08 A3011 RMK SLP200
 
CYHU - Saint Hubert Arp, Quebec, Canada
Distance from station: ENE 31km
Updated: 10/18/2017 23:00 EDT
Clear
Clear
 Wind from S
Wind: S 9 km/h
Temperature: 11°C
Dew Point: 8°C
Humidity: 82%
Barometer: 1020 hPa
Clouds: Clear
Visibility: 14 km
2017/10/19 03:00 CYHU 190300Z AUTO 19005KT 9SM CLR 11/08 A3012 RMK SLP201
CWIT - St Clothilde (a, Quebec, Canada
Distance from station: SSE 33km
Updated: 10/18/2017 23:00 EDT

 Wind from calm
Wind: Calm
Temperature: 7°C
Dew Point: 6°C
Humidity: 93%
2017/10/19 03:00 CWIT 190300Z AUTO 00000KT 07/06 RMK AO1 SLP198 T00710057 58009
 
CWIZ - L'acadie, Quebec, Canada
Distance from station: ESE 41km
Updated: 10/18/2017 23:00 EDT

 Wind from S
Wind: S 11 km/h
Temperature: 11°C
Dew Point: 9°C
Humidity: 88%
2017/10/19 03:00 CWIZ 190300Z AUTO 17006KT 11/09 RMK AO1 T01110094
CWHM - Varennes, Quebec, Canada
Distance from station: NE 45km
Updated: 10/25/2016 10:00 EDT
NOT Current

 Wind from W
Wind: W 19 km/h, Gust: 28 km/h
Temperature: 4°C
Wind Chill: 0°C
Dew Point: -2°C
Humidity: 65%
2016/10/25 14:00 CWHM 251400Z AUTO 28010G15KT 04/M02 RMK AO1 PK WND 28018/1302 T00391017
 
CWEW - L'assomption, Quebec, Canada
Distance from station: NE 50km
Updated: 10/18/2017 10:00 EDT
NOT Current

 Wind from WNW
Wind: WNW 6 km/h
Temperature: 13°C
2017/10/18 14:00 CWEW 181400Z AUTO 29003KT 13/ RMK AO1 SLP236 T0130 51021
CWBZ - St Anicet, Quebec, Canada
Distance from station: SW 52km
Updated: 10/18/2017 23:00 EDT

 Wind from NNW
Wind: NNW 2 km/h
Temperature: 8°C
Dew Point: 7°C
Humidity: 93%
2017/10/19 03:00 CWBZ 190300Z AUTO 34001KT 08/07 RMK AO1 SLP196 T00760070 58009
 
KFSO - Highgate, Vermont, USA
Distance from station: SE 79km
Updated: 10/18/2017 23:35 EDT
Clear
Clear
 Wind from S
Wind: S 13 km/h
Temperature: 14°C
Dew Point: 8°C
Humidity: 67%
Barometer: 1021 hPa
Clouds: Clear
Visibility: 16 km
2017/10/19 03:35 KFSO 190335Z AUTO 18007KT 10SM CLR 14/08 A3015 RMK AO2 T01420080
CMGB - Granby, Quebec, Canada
Distance from station: E 81km
Updated: 10/18/2017 23:30 EDT

 Wind from SSW
Wind: SSW 4 km/h
Temperature: 12°C
Dew Point: 7°C
Humidity: 72%
2017/10/19 03:30 CMGB 190330Z AUTO 20002KT 12/07 RMK AO1 SLP204 T01180070 56008
 
CWJT - St Jovite (autob, Quebec, Canada
Distance from station: NW 88km
Updated: 10/18/2017 23:00 EDT

 Wind from SSW
Wind: SSW 2 km/h
Temperature: 10°C
Dew Point: 9°C
Humidity: 94%
2017/10/19 03:00 CWJT 190300Z AUTO 20001KT 10/09 RMK AO1 SLP192 T00970086 58006
CWFQ - Frelighsburg, Quebec, Canada
Distance from station: ESE 90km
Updated: 10/18/2017 23:00 EDT

 Wind from S
Wind: S 7 km/h
Temperature: 13°C
Dew Point: 8°C
Humidity: 72%
2017/10/19 03:00 CWFQ 190300Z AUTO 17004KT 13/08 RMK AO1 T01270075 58004
 
KPBG - Plattsburgh Afb, New York, USA
Distance from station: SSE 93km
Updated: 10/18/2017 22:53 EDT
Clear
Clear
 Wind from calm
Wind: Calm
Temperature: 8°C
Dew Point: 7°C
Humidity: 93%
Barometer: 1021.3 hPa
Clouds: Clear
Visibility: 16 km
2017/10/19 02:53 KPBG 190253Z AUTO 00000KT 10SM CLR 08/07 A3016 RMK AO2 SLP214 T00780067 58003
KMSS - Massena, New York, USA
Distance from station: SW 100km
Updated: 10/18/2017 22:53 EDT
Clear
Clear
 Wind from calm
Wind: Calm
Temperature: 7°C
Dew Point: 7°C
Humidity: 100%
Barometer: 1020 hPa
Clouds: Clear
Visibility: 16 km
2017/10/19 02:53 KMSS 190253Z AUTO 00000KT 10SM CLR 07/07 A3012 RMK AO2 SLP201 T00720067 58011
 
CWBS - Lac St Pierre (a, Quebec, Canada
Distance from station: NE 106km
Updated: 10/18/2017 23:00 EDT

 Wind from SSW
Wind: SSW 26 km/h
Temperature: 13°C
Dew Point: 9°C
Humidity: 77%
2017/10/19 03:00 CWBS 190300Z AUTO 20014KT 13/09 RMK AO1 T01330092
KBTV - Burlington, Vermont, USA
Distance from station: SSE 121km
Updated: 10/18/2017 22:54 EDT
Clear
Clear
 Wind from S
Wind: S 17 km/h
Temperature: 16°C
Dew Point: 8°C
Humidity: 59%
Barometer: 1021.7 hPa
Clouds: Clear
Visibility: 16 km
2017/10/19 02:54 KBTV 190254Z 18009KT 10SM CLR 16/08 A3017 RMK AO2 SLP217 T01560078 58006
 
KSLK - Saranac Lake, New York, USA
Distance from station: SSW 121km
Updated: 10/18/2017 22:51 EDT
Clear
Clear
 Wind from calm
Wind: Calm
Temperature: 4°C
Dew Point: 4°C
Humidity: 100%
Barometer: 1021.7 hPa
Clouds: Clear
Visibility: 16 km
2017/10/19 02:51 KSLK 190251Z AUTO 00000KT 10SM CLR 04/04 A3017 RMK AO2 SLP225 T00390039 58006
CWNQ - Nicolet (autob), Quebec, Canada
Distance from station: NE 123km
Updated: 10/18/2017 23:00 EDT

 Wind from SSE
Wind: SSE 9 km/h
Temperature: 11°C
Dew Point: 6°C
Humidity: 72%
2017/10/19 03:00 CWNQ 190300Z AUTO 16005KT 11/06 RMK AO1 SLP191 T01110064 57010
 
KMWN - Mount Washington, New Hampshire, USA
Distance from station: SE 237km
Updated: 10/18/2017 22:52 EDT
Clear
Clear
 Wind from WSW
Wind: WSW 26 km/h
Temperature: 4°C
Wind Chill: -1°C
Dew Point: -2°C
Humidity: 65%
Clouds: Clear
Visibility: 192 km
2017/10/19 02:52 KMWN 190252Z 25014KT 120SM SKC 04/M02 RMK
CYVR - Vancouver Intl A, British Columbia, Canada
Distance from station: NW 3676km
Updated: 10/18/2017 23:00 EDT
Overcast
Overcast
 Wind from S
Wind: S 26 km/h
Temperature: 12°C
Dew Point: 10°C
Humidity: 88%
Barometer: 998.6 hPa
Clouds: Overcast
Visibility: 24 km
Cloud details: Few Clouds 975 m
Partly cloudy 1798 m
Partly cloudy 2438 m
Overcast 3658 m
2017/10/19 03:00 CYVR 190300Z 17014KT 15SM FEW032 SCT059 SCT080 OVC120 12/10 A2949 RMK SC1SC2AS1AC4 SLP987 DENSITY ALT 200FT